2VA1 weather

Jett Airpark
Edwardsville, Virginia, United States

Public forecast

Using degrees Fahrenheit for public forecast. Weather courtesy of forecast.io.

METAR (pilot weather report)

Closest report is Webster Nolf Airport, 15.4 nm (28.5 km) NNW. Retrieved 2019/09/17 08:53 UTC (26 minutes ago):

KNUI 170853Z AUTO 00000KT 6SM HZ FEW065 SCT110 23/20 A2998 RMK AO2 SLP151 T02280200 56001 $

TAF (pilot weather forecast)

Forecast is more than 12 hours old.

Closest forecast is Patuxent River Naval Air Station (Trapnell Field), 23.6 nm (43.6 km) N. Retrieved 2015/11/16 23:24 UTC (4 years ago):

TAF KNHK 162300Z 1623/1723 VRB04KT 9999 FEW160 SCT250 542709 523601 QNH3022INS FM170500 VRB04KT 9999 SCT160 BKN250 500000 QNH3026INS FM170900 05006KT 9999 FEW020 BKN160 OVC250 621608 QNH3030INS FM171400 05010KT 9999 FEW020 SCT160 SCT250 600000 QNH3037INS FM171900 06010KT 9999 BKN025 BKN250 QNH3040INS AUTOMATED SENSOR METWATCH 1704 TIL 1709 T08/1709Z T16/1719Z FN20013